Time;durP1;ratioP1;P1;durP2;ratioP2;P2;SDS_P1;SDS_P2;PMS_P1;PMS_P2;Temp;Humidity;BMP_temperature;BMP_pressure;BME280_temperature;BME280_humidity;BME280_pressure;Samples;Min_cycle;Max_cycle;Signal;HPM_P1;HPM_P2
2022/06/13 00:06:35;;;;;;;;;;;29.10;27.10;;;;;;21263692;27;19930;-66
2022/06/13 00:16:37;;;;;;;;;;;28.90;27.20;;;;;;21247906;28;19956;-68
2022/06/13 00:26:38;;;;;;;;;;;28.80;27.40;;;;;;21251326;27;19925;-66
2022/06/13 00:36:40;;;;;;;;;;;28.70;27.50;;;;;;21263992;27;19975;-68
2022/06/13 00:46:41;;;;;;;;;;;28.40;27.40;;;;;;21261003;27;19923;-65
2022/06/13 00:56:43;;;;;;;;;;;28.30;26.80;;;;;;21260392;27;20042;-66
2022/06/13 01:06:47;;;;;;;;;;;28.20;25.50;;;;;;21259005;27;19930;-68
2022/06/13 01:16:48;;;;;;;;;;;28.10;25.40;;;;;;21258348;27;19966;-65
2022/06/13 01:26:52;;;;;;;;;;;28.20;25.10;;;;;;21258584;27;19923;-67
2022/06/13 01:37:09;;;;;;;;;;;27.90;25.40;;;;;;21257221;27;20291;-66
2022/06/13 01:47:13;;;;;;;;;;;27.70;25.40;;;;;;21255386;27;19930;-65
2022/06/13 01:57:18;;;;;;;;;;;27.60;25.50;;;;;;21254719;27;20287;-66
2022/06/13 02:07:24;;;;;;;;;;;27.50;26.00;;;;;;21253890;27;20389;-68
2022/06/13 02:17:32;;;;;;;;;;;27.40;26.30;;;;;;21253920;27;19934;-68
2022/06/13 02:27:47;;;;;;;;;;;27.30;26.50;;;;;;21253667;27;19927;-66
2022/06/13 02:38:01;;;;;;;;;;;27.40;26.00;;;;;;21252244;27;19929;-68
2022/06/13 02:48:23;;;;;;;;;;;27.10;26.20;;;;;;21250854;27;19969;-67
2022/06/13 02:58:36;;;;;;;;;;;27.10;26.10;;;;;;21250293;27;19927;-67
2022/06/13 03:08:48;;;;;;;;;;;27.00;26.00;;;;;;21250295;27;19930;-66
2022/06/13 03:19:00;;;;;;;;;;;27.00;25.70;;;;;;21248989;27;19923;-69
2022/06/13 03:29:25;;;;;;;;;;;27.00;25.70;;;;;;21250100;27;19976;-66
2022/06/13 03:39:46;;;;;;;;;;;27.00;25.90;;;;;;21248549;28;19928;-66
2022/06/13 03:49:56;;;;;;;;;;;26.80;26.10;;;;;;21263803;27;19928;-67
2022/06/13 04:00:02;;;;;;;;;;;26.70;26.20;;;;;;21248242;28;19924;-68
2022/06/13 04:10:10;;;;;;;;;;;26.70;26.50;;;;;;21270659;27;19924;-66
2022/06/13 04:20:29;;;;;;;;;;;26.50;27.30;;;;;;21263103;27;19923;-65
2022/06/13 04:30:32;;;;;;;;;;;26.40;28.30;;;;;;21264465;27;20405;-65
2022/06/13 04:40:37;;;;;;;;;;;26.20;28.80;;;;;;21263274;27;20014;-67
2022/06/13 04:50:45;;;;;;;;;;;26.20;29.30;;;;;;21261202;27;19983;-66
2022/06/13 05:00:49;;;;;;;;;;;26.10;29.80;;;;;;21274935;27;20061;-68
2022/06/13 05:10:52;;;;;;;;;;;26.00;30.00;;;;;;21274698;27;19934;-68
2022/06/13 05:21:13;;;;;;;;;;;26.00;30.10;;;;;;21257286;27;19967;-65
2022/06/13 05:31:18;;;;;;;;;;;25.90;30.50;;;;;;21258075;27;19923;-66
2022/06/13 05:41:21;;;;;;;;;;;25.90;31.00;;;;;;21256682;27;20275;-65
2022/06/13 05:51:22;;;;;;;;;;;25.90;31.60;;;;;;21257034;27;20400;-65
2022/06/13 06:01:24;;;;;;;;;;;25.70;32.80;;;;;;21254806;27;19977;-68
2022/06/13 06:11:26;;;;;;;;;;;25.30;33.20;;;;;;21254049;27;19923;-65
2022/06/13 06:21:28;;;;;;;;;;;24.90;34.00;;;;;;21253024;27;20256;-66
2022/06/13 06:31:32;;;;;;;;;;;25.00;34.10;;;;;;21252895;27;19924;-66
2022/06/13 06:41:33;;;;;;;;;;;25.10;34.70;;;;;;21251798;27;20369;-66
2022/06/13 06:51:35;;;;;;;;;;;;;;;;;;21250697;27;19924;-67
2022/06/13 07:01:37;;;;;;;;;;;26.00;33.80;;;;;;21249980;27;20022;-66
2022/06/13 07:11:54;;;;;;;;;;;26.60;32.70;;;;;;21251041;27;20409;-66
2022/06/13 07:21:55;;;;;;;;;;;27.10;32.20;;;;;;21248885;27;19927;-65
2022/06/13 07:32:02;;;;;;;;;;;27.80;29.80;;;;;;21248269;27;20299;-65
2022/06/13 07:42:05;;;;;;;;;;;28.50;28.80;;;;;;21265166;27;19927;-63
2022/06/13 07:52:06;;;;;;;;;;;28.80;28.90;;;;;;21276181;27;19976;-66
2022/06/13 08:02:17;;;;;;;;;;;29.40;27.40;;;;;;21275140;27;19924;-63
2022/06/13 08:12:19;;;;;;;;;;;29.80;27.10;;;;;;21275965;27;20014;-65
2022/06/13 08:22:21;;;;;;;;;;;30.20;25.90;;;;;;21275090;27;19966;-65
2022/06/13 08:32:23;;;;;;;;;;;30.30;26.20;;;;;;21275445;27;19930;-66
2022/06/13 08:42:40;;;;;;;;;;;30.60;25.30;;;;;;21274653;27;19931;-65
2022/06/13 08:52:47;;;;;;;;;;;31.00;25.60;;;;;;21264821;27;20202;-66
2022/06/13 09:03:00;;;;;;;;;;;31.00;24.80;;;;;;21275145;27;19923;-65
2022/06/13 09:13:07;;;;;;;;;;;31.20;24.80;;;;;;21259139;27;19930;-64
2022/06/13 09:23:09;;;;;;;;;;;;;;;;;;21259359;27;19923;-65
2022/06/13 09:33:13;;;;;;;;;;;31.90;25.00;;;;;;21265275;27;20023;-66
2022/06/13 09:43:22;;;;;;;;;;;32.10;24.30;;;;;;21242349;27;19931;-64
2022/06/13 09:53:24;;;;;;;;;;;;;;;;;;21178180;28;20011;-61
2022/06/13 10:03:38;;;;;;;;;;;32.70;23.20;;;;;;21218305;27;19930;-66
2022/06/13 10:13:44;;;;;;;;;;;32.60;23.20;;;;;;21169597;28;19924;-64
2022/06/13 10:23:48;;;;;;;;;;;;;;;;;;21167480;27;20391;-62
2022/06/13 10:33:58;;;;;;;;;;;33.30;22.10;;;;;;21176084;27;19923;-64
2022/06/13 10:44:01;;;;;;;;;;;33.30;21.20;;;;;;21208815;27;20311;-61
2022/06/13 10:54:08;;;;;;;;;;;33.20;21.50;;;;;;21234079;27;20334;-64
2022/06/13 11:04:17;;;;;;;;;;;33.40;21.00;;;;;;21250697;27;20295;-70
2022/06/13 11:14:27;;;;;;;;;;;33.50;20.70;;;;;;21235808;27;19930;-63
2022/06/13 11:24:29;;;;;;;;;;;;;;;;;;21249925;27;19923;-65
2022/06/13 11:34:32;;;;;;;;;;;34.20;20.10;;;;;;21248568;27;20406;-61
2022/06/13 11:44:40;;;;;;;;;;;34.10;19.80;;;;;;21250207;28;20409;-61
2022/06/13 11:54:54;;;;;;;;;;;34.20;20.10;;;;;;21246554;28;20010;-62
2022/06/13 12:04:56;;;;;;;;;;;34.60;19.50;;;;;;21247588;28;19927;-63
2022/06/13 12:14:58;;;;;;;;;;;;;;;;;;21246358;28;19923;-61
2022/06/13 12:25:12;;;;;;;;;;;35.10;18.90;;;;;;21248966;27;20001;-67
2022/06/13 12:35:14;;;;;;;;;;;35.40;18.70;;;;;;21261438;27;19980;-68
2022/06/13 12:45:15;;;;;;;;;;;35.70;18.80;;;;;;21261446;27;20363;-67
2022/06/13 12:55:17;;;;;;;;;;;35.60;18.80;;;;;;21261082;27;19963;-69
2022/06/13 13:05:19;;;;;;;;;;;36.00;18.40;;;;;;21259851;27;19987;-68
2022/06/13 13:15:41;;;;;;;;;;;36.00;18.40;;;;;;21259110;27;19927;-65
2022/06/13 13:25:46;;;;;;;;;;;36.20;18.20;;;;;;21258327;27;19927;-66
2022/06/13 13:36:02;;;;;;;;;;;36.60;18.20;;;;;;21257465;27;19976;-65
2022/06/13 13:46:05;;;;;;;;;;;;;;;;;;21256702;27;20434;-65
2022/06/13 13:56:22;;;;;;;;;;;36.90;17.80;;;;;;21256021;27;19923;-66
2022/06/13 14:06:26;;;;;;;;;;;37.20;17.80;;;;;;21254866;27;19951;-64
2022/06/13 14:16:34;;;;;;;;;;;37.10;17.60;;;;;;21254943;27;19923;-64
2022/06/13 14:26:57;;;;;;;;;;;37.20;17.70;;;;;;21254058;27;19923;-65
2022/06/13 14:36:59;;;;;;;;;;;37.40;17.90;;;;;;21250930;27;19946;-64
2022/06/13 14:47:12;;;;;;;;;;;37.50;17.70;;;;;;21250865;27;20398;-63
2022/06/13 14:57:14;;;;;;;;;;;;;;;;;;21251180;27;20020;-70
2022/06/13 15:07:20;;;;;;;;;;;38.70;17.20;;;;;;21250202;27;19923;-64
2022/06/13 15:17:23;;;;;;;;;;;38.60;17.20;;;;;;21252575;27;19928;-67
2022/06/13 15:27:25;;;;;;;;;;;38.50;17.00;;;;;;21249187;27;20011;-65
2022/06/13 15:37:36;;;;;;;;;;;38.30;17.30;;;;;;21230624;27;19972;-70
2022/06/13 15:47:38;;;;;;;;;;;38.30;17.00;;;;;;21250075;28;20368;-64
2022/06/13 15:57:59;;;;;;;;;;;38.40;17.30;;;;;;21247899;27;19923;-64
2022/06/13 16:08:03;;;;;;;;;;;38.40;17.30;;;;;;21264306;27;19929;-71
2022/06/13 16:18:13;;;;;;;;;;;38.30;16.80;;;;;;21262863;27;19923;-62
2022/06/13 16:28:16;;;;;;;;;;;38.40;17.00;;;;;;21261499;27;19923;-67
2022/06/13 16:38:18;;;;;;;;;;;38.30;16.90;;;;;;21262235;27;20404;-64
2022/06/13 16:48:20;;;;;;;;;;;38.50;17.10;;;;;;21261523;27;19930;-64
2022/06/13 16:58:21;;;;;;;;;;;38.40;17.00;;;;;;21260150;27;19927;-62
2022/06/13 17:08:25;;;;;;;;;;;38.10;17.30;;;;;;21260619;27;19924;-61
2022/06/13 17:18:27;;;;;;;;;;;37.70;17.40;;;;;;21241011;27;19931;-62
2022/06/13 17:38:50;;;;;;;;;;;36.90;17.80;;;;;;21256910;27;20049;-63
2022/06/13 17:48:51;;;;;;;;;;;36.70;18.20;;;;;;21257075;27;20427;-62
2022/06/13 17:58:53;;;;;;;;;;;36.60;18.40;;;;;;21261120;27;20393;-61
2022/06/13 18:08:55;;;;;;;;;;;36.20;18.70;;;;;;21255830;27;19924;-64
2022/06/13 18:18:58;;;;;;;;;;;36.00;18.80;;;;;;21252927;27;19924;-65
2022/06/13 18:29:01;;;;;;;;;;;35.80;19.00;;;;;;21252971;27;20351;-66
2022/06/13 18:39:03;;;;;;;;;;;35.70;19.00;;;;;;21252138;27;19923;-61
2022/06/13 18:49:05;;;;;;;;;;;35.70;19.30;;;;;;21253549;27;19924;-61
2022/06/13 18:59:06;;;;;;;;;;;35.50;20.00;;;;;;21250105;27;20018;-60
2022/06/13 19:09:08;;;;;;;;;;;35.40;20.00;;;;;;21251667;27;20393;-66
2022/06/13 19:19:10;;;;;;;;;;;35.30;20.20;;;;;;21249282;27;20286;-65
2022/06/13 19:29:17;;;;;;;;;;;35.10;20.40;;;;;;21249330;27;19927;-62
2022/06/13 19:39:20;;;;;;;;;;;34.70;21.00;;;;;;21230531;27;19929;-66
2022/06/13 19:49:21;;;;;;;;;;;34.60;21.30;;;;;;21247565;28;19934;-65
2022/06/13 19:59:23;;;;;;;;;;;34.30;21.60;;;;;;21247512;28;19924;-61
2022/06/13 20:09:24;;;;;;;;;;;34.20;21.50;;;;;;21247548;28;19924;-63
2022/06/13 20:19:33;;;;;;;;;;;34.10;22.10;;;;;;21246783;28;20291;-60
2022/06/13 20:29:35;;;;;;;;;;;33.80;22.20;;;;;;21246464;28;19924;-68
2022/06/13 20:39:40;;;;;;;;;;;33.60;22.50;;;;;;21245567;28;20247;-62
2022/06/13 20:49:43;;;;;;;;;;;33.60;22.40;;;;;;21255948;27;19971;-64
2022/06/13 20:59:46;;;;;;;;;;;33.40;22.60;;;;;;21259017;27;19923;-63
2022/06/13 21:10:09;;;;;;;;;;;33.20;23.10;;;;;;21258644;27;19992;-62
2022/06/13 21:20:13;;;;;;;;;;;33.10;23.50;;;;;;21241588;27;20001;-64
2022/06/13 21:30:15;;;;;;;;;;;32.70;24.00;;;;;;21259510;27;19923;-66
2022/06/13 21:40:17;;;;;;;;;;;32.60;24.30;;;;;;21256568;27;19927;-66
2022/06/13 21:50:21;;;;;;;;;;;32.40;24.40;;;;;;21256437;27;19924;-61
2022/06/13 22:00:24;;;;;;;;;;;32.30;24.60;;;;;;21255723;27;19932;-66
2022/06/13 22:10:27;;;;;;;;;;;32.20;25.60;;;;;;21254793;27;19943;-65
2022/06/13 22:20:28;;;;;;;;;;;32.00;25.80;;;;;;21253869;27;19931;-65
2022/06/13 22:30:33;;;;;;;;;;;31.90;26.00;;;;;;21254852;27;19923;-66
2022/06/13 22:40:36;;;;;;;;;;;31.70;25.60;;;;;;21253673;27;19927;-61
2022/06/13 22:50:38;;;;;;;;;;;31.70;25.90;;;;;;21254364;27;19923;-64
2022/06/13 23:00:39;;;;;;;;;;;31.60;26.20;;;;;;21251014;27;19929;-66
2022/06/13 23:10:41;;;;;;;;;;;31.30;27.20;;;;;;21249461;27;20099;-62
2022/06/13 23:20:43;;;;;;;;;;;31.00;27.00;;;;;;21249058;27;19931;-64
2022/06/13 23:30:44;;;;;;;;;;;30.90;27.00;;;;;;21248999;27;19970;-62
2022/06/13 23:40:46;;;;;;;;;;;30.90;27.30;;;;;;21248440;27;19963;-61
2022/06/13 23:50:47;;;;;;;;;;;30.70;28.00;;;;;;21248355;28;19923;-62
